Time;durP1;ratioP1;P1;durP2;ratioP2;P2;SDS_P1;SDS_P2;PMS_P1;PMS_P2;Temp;Humidity;BMP_temperature;BMP_pressure;BME280_temperature;BME280_humidity;BME280_pressure;Samples;Min_cycle;Max_cycle;Signal;HPM_P1;HPM_P2
2022/05/24 00:00:19;;;;;;;0.60;0.50;;;20.00;89.90;20.60;95511.00;;;;5043106;28;20212;-83
2022/05/24 00:02:46;;;;;;;0.40;0.40;;;20.00;89.20;20.60;95517.00;;;;5040491;28;20200;-83
2022/05/24 00:05:16;;;;;;;1.40;0.70;;;20.00;89.20;20.60;95515.00;;;;5026419;28;20227;-83
2022/05/24 00:07:44;;;;;;;1.13;0.77;;;20.00;89.30;20.60;95509.00;;;;5040126;28;20228;-83
2022/05/24 00:10:16;;;;;;;0.87;0.50;;;20.00;89.30;20.60;95504.00;;;;5030734;28;20676;-83
2022/05/24 00:12:43;;;;;;;1.30;0.70;;;20.00;89.30;20.60;95496.00;;;;5035779;28;20686;-83
2022/05/24 00:15:23;;;;;;;0.60;0.60;;;20.00;89.40;20.70;95501.00;;;;5033684;28;20219;-83
2022/05/24 00:17:54;;;;;;;1.97;0.83;;;20.00;89.40;20.70;95500.00;;;;5043807;28;20193;-83
2022/05/24 00:20:26;;;;;;;1.20;0.70;;;20.00;89.40;20.70;95501.00;;;;5037428;28;20198;-83
2022/05/24 00:22:54;;;;;;;1.13;1.00;;;20.10;89.50;20.70;95502.00;;;;5037600;28;20193;-83
2022/05/24 00:25:21;;;;;;;2.13;0.90;;;20.00;89.60;20.70;95507.00;;;;5033747;28;20239;-83
2022/05/24 00:27:49;;;;;;;3.30;0.80;;;20.00;89.80;20.70;95513.00;;;;5043984;28;20232;-83
2022/05/24 00:30:18;;;;;;;1.10;0.80;;;20.00;89.80;20.70;95505.00;;;;5031911;28;20199;-83
2022/05/24 00:32:46;;;;;;;2.03;0.83;;;20.00;89.80;20.70;95501.00;;;;5038647;28;20209;-83
2022/05/24 00:35:13;;;;;;;0.80;0.80;;;20.10;89.80;20.70;95507.00;;;;5042874;28;20221;-83
2022/05/24 00:37:44;;;;;;;0.70;0.60;;;20.10;89.80;20.70;95500.00;;;;5026927;28;20578;-83
2022/05/24 00:40:23;;;;;;;1.27;0.70;;;20.10;89.80;20.70;95509.00;;;;5030590;28;20210;-83
2022/05/24 00:42:52;;;;;;;1.07;0.73;;;20.10;89.80;20.80;95506.00;;;;5029172;28;20574;-83
2022/05/24 00:45:27;;;;;;;0.70;0.63;;;20.10;89.90;20.80;95504.00;;;;5036675;28;20272;-83
2022/05/24 00:48:02;;;;;;;1.17;0.80;;;20.10;89.90;20.80;95506.00;;;;5038902;28;20716;-83
2022/05/24 00:50:34;;;;;;;0.87;0.80;;;20.10;90.00;20.80;95509.00;;;;5034348;28;20208;-83
2022/05/24 00:53:08;;;;;;;0.97;0.70;;;20.20;90.00;20.80;95507.00;;;;5041700;28;20201;-83
2022/05/24 00:55:43;;;;;;;0.90;0.90;;;20.20;89.90;20.80;95509.00;;;;5040776;28;20230;-83
2022/05/24 00:58:21;;;;;;;0.80;0.80;;;20.20;89.80;20.80;95512.00;;;;5056881;28;20265;-83
2022/05/24 01:00:48;;;;;;;2.77;0.87;;;20.20;89.90;20.80;95514.00;;;;5048756;28;20193;-83
2022/05/24 01:03:15;;;;;;;0.87;0.87;;;20.20;89.90;20.80;95516.00;;;;5042306;28;20567;-83
2022/05/24 01:05:44;;;;;;;1.70;1.00;;;20.20;89.90;20.80;95505.00;;;;5050734;28;20212;-83
2022/05/24 01:08:12;;;;;;;1.03;0.80;;;20.20;90.00;20.80;95517.00;;;;5039539;28;20692;-82
2022/05/24 01:10:47;;;;;;;1.27;0.80;;;20.20;90.00;20.90;95518.00;;;;5040159;28;20244;-83
2022/05/24 01:13:22;;;;;;;1.00;1.00;;;20.20;90.00;20.90;95517.00;;;;5036213;28;20558;-83
2022/05/24 01:15:51;;;;;;;0.83;0.83;;;20.20;90.00;20.90;95508.00;;;;5037605;28;20227;-83
2022/05/24 01:18:21;;;;;;;0.77;0.70;;;20.20;90.00;20.90;95510.00;;;;5040312;28;20209;-82
2022/05/24 01:20:56;;;;;;;1.77;0.80;;;20.20;90.00;20.90;95505.00;;;;5041130;28;20200;-83
2022/05/24 01:23:54;;;;;;;1.07;0.80;;;20.20;90.00;20.90;95518.00;;;;5041558;28;20205;-82
2022/05/24 01:26:45;;;;;;;0.80;0.80;;;20.30;90.00;20.90;95515.00;;;;5035574;28;20221;-83
2022/05/24 01:29:12;;;;;;;0.80;0.80;;;20.30;90.10;21.00;95522.00;;;;5033757;28;20197;-84
2022/05/24 01:37:12;;;;;;;0.90;0.90;;;20.30;90.10;21.00;95516.00;;;;5038631;28;20311;-83
2022/05/24 01:39:43;;;;;;;1.70;0.80;;;20.30;90.10;21.00;95506.00;;;;5032124;28;20822;-84
2022/05/24 01:42:13;;;;;;;3.43;1.03;;;20.40;90.00;21.00;95500.00;;;;5035597;28;20193;-84
2022/05/24 01:44:49;;;;;;;1.00;0.90;;;20.30;90.00;21.00;95512.00;;;;5036269;28;20217;-83
2022/05/24 01:47:18;;;;;;;1.17;0.80;;;20.30;90.00;21.00;95510.00;;;;5036116;28;20219;-83
2022/05/24 01:49:50;;;;;;;1.17;1.07;;;20.30;90.00;20.90;95510.00;;;;5036518;28;20292;-84
2022/05/24 01:52:23;;;;;;;1.47;0.90;;;20.30;90.00;20.90;95515.00;;;;5036456;28;20619;-83
2022/05/24 01:54:56;;;;;;;1.20;1.10;;;20.30;90.00;20.90;95507.00;;;;5050572;28;20713;-83
2022/05/24 01:57:32;;;;;;;1.33;1.00;;;20.30;90.00;20.90;95501.00;;;;5035706;28;20202;-83
2022/05/24 02:00:04;;;;;;;0.97;0.97;;;20.30;90.10;20.90;95503.00;;;;5031782;28;20189;-83
2022/05/24 02:02:31;;;;;;;1.83;1.30;;;20.30;90.00;20.90;95497.00;;;;5045043;28;20200;-83
2022/05/24 02:04:58;;;;;;;1.57;1.27;;;20.30;90.00;20.90;95496.00;;;;5039994;28;20243;-84
2022/05/24 02:07:27;;;;;;;1.30;1.20;;;20.30;90.00;20.90;95493.00;;;;5035834;28;20317;-84
2022/05/24 02:09:57;;;;;;;1.90;1.23;;;20.30;90.00;20.90;95497.00;;;;5027326;28;20277;-83
2022/05/24 02:12:33;;;;;;;1.10;1.00;;;20.30;90.00;20.90;95500.00;;;;5016644;28;20222;-83
2022/05/24 02:15:07;;;;;;;1.83;1.20;;;20.30;90.00;20.90;95496.00;;;;5028789;28;20214;-83
2022/05/24 02:17:43;;;;;;;1.63;1.43;;;20.30;90.00;20.90;95496.00;;;;5030254;28;20679;-84
2022/05/24 02:20:16;;;;;;;1.50;1.10;;;20.30;90.00;20.90;95495.00;;;;5037063;28;20185;-83
2022/05/24 02:22:45;;;;;;;1.97;1.30;;;20.20;90.00;20.90;95491.00;;;;5047332;28;20193;-83
2022/05/24 02:25:23;;;;;;;1.33;1.23;;;20.20;90.00;20.90;95497.00;;;;5032884;28;20224;-83
2022/05/24 02:27:53;;;;;;;1.73;1.37;;;20.30;90.00;20.90;95479.00;;;;5029680;28;20213;-83
2022/05/24 02:30:24;;;;;;;1.80;1.10;;;20.30;90.00;20.90;95487.00;;;;5033883;28;20205;-83
2022/05/24 02:32:51;;;;;;;1.87;1.27;;;20.30;90.00;20.90;95478.00;;;;5018976;28;20216;-84
2022/05/24 02:35:19;;;;;;;1.37;1.10;;;20.20;90.00;20.90;95478.00;;;;5033521;28;20233;-83
2022/05/24 02:37:46;;;;;;;1.67;1.30;;;20.20;90.00;20.90;95472.00;;;;5034112;28;20682;-83
2022/05/24 02:43:01;;;;;;;1.63;1.30;;;20.20;90.00;20.90;95461.00;;;;5031531;28;20244;-84
2022/05/24 02:45:28;;;;;;;1.30;1.13;;;20.30;90.10;20.90;95468.00;;;;5030132;28;20221;-83
2022/05/24 02:47:55;;;;;;;1.73;1.27;;;20.20;90.10;20.90;95463.00;;;;5036704;28;20716;-83
2022/05/24 02:50:23;;;;;;;1.97;1.50;;;20.20;90.10;20.90;95458.00;;;;5042435;28;20196;-83
2022/05/24 02:52:50;;;;;;;1.30;1.20;;;20.20;90.10;20.90;95453.00;;;;5030209;28;20201;-83
2022/05/24 02:55:18;;;;;;;1.20;1.10;;;20.20;90.00;20.90;95446.00;;;;5039630;28;20221;-83
2022/05/24 02:57:45;;;;;;;1.57;1.10;;;20.30;90.00;20.90;95450.00;;;;5033383;28;20207;-84
2022/05/24 03:00:19;;;;;;;1.67;1.03;;;20.20;90.00;20.90;95451.00;;;;5035828;28;20213;-83
2022/05/24 03:02:47;;;;;;;1.77;1.40;;;20.20;90.00;20.80;95451.00;;;;5031653;28;20195;-84
2022/05/24 03:05:15;;;;;;;1.80;1.53;;;20.20;90.00;20.80;95453.00;;;;5034578;28;20222;-84
2022/05/24 03:10:29;;;;;;;2.60;1.20;;;20.20;89.90;20.80;95459.00;;;;5032269;28;20223;-84
2022/05/24 03:15:44;;;;;;;1.47;1.10;;;20.20;90.00;20.80;95459.00;;;;5027221;28;20248;-84
2022/05/24 03:18:14;;;;;;;1.87;1.10;;;20.20;90.00;20.80;95450.00;;;;5042656;28;20196;-84
2022/05/24 03:20:43;;;;;;;2.13;1.23;;;20.20;90.00;20.80;95452.00;;;;5023369;28;20660;-83
2022/05/24 03:23:10;;;;;;;1.57;1.30;;;20.20;90.00;20.80;95448.00;;;;5031760;28;20210;-84
2022/05/24 03:25:38;;;;;;;1.47;1.37;;;20.20;90.00;20.80;95458.00;;;;5032621;28;20227;-83
2022/05/24 03:28:08;;;;;;;2.17;1.27;;;20.20;90.00;20.80;95463.00;;;;5032785;28;20722;-84
2022/05/24 03:30:41;;;;;;;1.50;1.13;;;20.10;90.10;20.80;95473.00;;;;5032965;28;20200;-84
2022/05/24 03:33:10;;;;;;;1.27;1.10;;;20.10;90.10;20.80;95467.00;;;;5036453;28;20187;-84
2022/05/24 03:35:37;;;;;;;1.60;1.47;;;20.20;90.10;20.80;95467.00;;;;5032460;28;20230;-84
2022/05/24 03:38:06;;;;;;;1.20;1.10;;;20.20;90.10;20.80;95463.00;;;;5032851;28;20233;-84
2022/05/24 03:40:33;;;;;;;1.87;1.30;;;20.10;90.10;20.80;95461.00;;;;5032307;28;20686;-84
2022/05/24 03:43:01;;;;;;;1.27;1.27;;;20.10;90.10;20.80;95462.00;;;;5039414;28;20200;-84
2022/05/24 03:45:29;;;;;;;1.77;1.30;;;20.20;90.10;20.80;95463.00;;;;5048841;28;20222;-84
2022/05/24 03:47:56;;;;;;;1.50;1.30;;;20.20;90.10;20.80;95463.00;;;;5045377;28;20232;-84
2022/05/24 03:50:25;;;;;;;1.67;1.23;;;20.20;90.10;20.80;95465.00;;;;5027021;28;20672;-85
2022/05/24 03:52:52;;;;;;;1.20;1.10;;;20.20;90.10;20.80;95466.00;;;;5046875;28;20201;-85
2022/05/24 03:55:19;;;;;;;1.67;1.27;;;20.20;90.10;20.80;95469.00;;;;5043177;28;20221;-84
2022/05/24 03:58:02;;;;;;;1.10;1.10;;;20.20;90.10;20.80;95472.00;;;;5036875;28;20550;-83
2022/05/24 04:00:32;;;;;;;2.20;1.27;;;20.20;90.10;20.80;95470.00;;;;5043099;28;20213;-84
2022/05/24 04:03:01;;;;;;;1.50;1.40;;;20.20;90.10;20.80;95468.00;;;;5049176;28;20579;-84
2022/05/24 04:05:32;;;;;;;1.90;1.77;;;20.20;90.10;20.80;95466.00;;;;5054758;28;20723;-84
2022/05/24 04:08:01;;;;;;;2.00;1.70;;;20.20;90.10;20.80;95466.00;;;;5045800;28;20237;-84
2022/05/24 04:10:30;;;;;;;3.63;1.53;;;20.20;90.50;20.80;95471.00;;;;5056348;28;20693;-84
2022/05/24 04:12:58;;;;;;;1.63;1.50;;;20.20;90.20;20.90;95469.00;;;;5036181;28;20214;-84
2022/05/24 04:15:26;;;;;;;1.70;1.60;;;20.20;90.20;20.90;95451.00;;;;5072701;22;20224;-88
2022/05/24 04:17:53;;;;;;;3.60;1.60;;;20.20;90.20;20.90;95447.00;;;;5089844;28;20272;-89
2022/05/24 04:20:22;;;;;;;1.80;1.40;;;20.20;90.20;20.90;95463.00;;;;5079491;28;20193;-88
2022/05/24 04:22:52;;;;;;;1.30;1.20;;;20.20;90.20;21.00;95470.00;;;;5076843;28;20229;-88
2022/05/24 04:25:20;;;;;;;1.10;1.10;;;20.30;90.30;21.00;95474.00;;;;5081194;28;20197;-86
2022/05/24 04:27:48;;;;;;;1.97;1.60;;;20.30;90.30;21.10;95464.00;;;;5080476;28;20253;-87
2022/05/24 04:30:16;;;;;;;2.10;1.20;;;20.30;90.30;21.10;95478.00;;;;5073885;28;20665;-86
2022/05/24 04:32:43;;;;;;;1.83;1.50;;;20.30;90.20;21.10;95480.00;;;;5084142;28;20226;-85
2022/05/24 04:35:11;;;;;;;1.47;1.30;;;20.40;90.20;21.10;95479.00;;;;5080884;28;20200;-85
2022/05/24 04:37:38;;;;;;;1.90;1.50;;;20.40;90.20;21.20;95478.00;;;;5082125;28;20235;-86
2022/05/24 04:40:09;;;;;;;1.93;1.67;;;20.40;90.10;21.20;95486.00;;;;5079942;28;20204;-86
2022/05/24 04:42:35;;;;;;;1.87;1.60;;;20.40;90.10;21.20;95485.00;;;;5082922;28;20192;-86
2022/05/24 04:45:08;;;;;;;1.67;1.50;;;20.50;90.20;21.30;95491.00;;;;5084383;28;20611;-84
2022/05/24 04:47:36;;;;;;;1.90;1.60;;;20.50;90.20;21.30;95494.00;;;;5068971;28;20233;-87
2022/05/24 04:50:08;;;;;;;1.50;1.40;;;20.50;90.20;21.30;95494.00;;;;5074027;28;20683;-87
2022/05/24 04:52:38;;;;;;;3.03;1.60;;;20.50;90.20;21.40;95494.00;;;;5070177;28;20232;-86
2022/05/24 04:55:11;;;;;;;2.10;1.07;;;20.60;90.30;21.40;95503.00;;;;5079688;28;20584;-87
2022/05/24 04:57:38;;;;;;;1.60;1.50;;;20.60;90.20;21.40;95496.00;;;;5075642;28;20851;-87
2022/05/24 05:00:12;;;;;;;3.80;1.73;;;20.60;90.20;21.50;95497.00;;;;5080399;28;20592;-87
2022/05/24 05:02:39;;;;;;;1.93;1.40;;;20.60;90.10;21.50;95497.00;;;;5090008;28;20198;-86
2022/05/24 05:05:08;;;;;;;2.03;1.50;;;20.60;90.10;21.50;95492.00;;;;5078098;28;20203;-87
2022/05/24 05:07:35;;;;;;;2.13;1.90;;;20.70;90.00;21.50;95495.00;;;;5081663;28;20215;-87
2022/05/24 05:10:02;;;;;;;1.40;1.30;;;20.70;89.80;21.50;95497.00;;;;5077951;28;20229;-84
2022/05/24 05:12:31;;;;;;;2.00;1.90;;;20.70;89.80;21.50;95497.00;;;;5074508;28;20188;-87
2022/05/24 05:14:58;;;;;;;1.93;1.40;;;20.70;89.70;21.50;95500.00;;;;5080115;28;20574;-86
2022/05/24 05:17:25;;;;;;;2.37;1.40;;;20.70;89.70;21.50;95510.00;;;;5081824;28;20211;-86
2022/05/24 05:19:54;;;;;;;2.37;1.70;;;20.70;90.20;21.50;95507.00;;;;5079544;28;20269;-87
2022/05/24 05:22:22;;;;;;;1.70;1.50;;;20.70;89.80;21.50;95507.00;;;;5077406;28;20273;-87
2022/05/24 05:24:49;;;;;;;3.13;1.60;;;20.80;89.90;21.60;95507.00;;;;5075821;28;20194;-87
2022/05/24 05:27:16;;;;;;;1.50;1.40;;;20.80;89.90;21.60;95505.00;;;;5084003;28;20220;-87
2022/05/24 05:32:30;;;;;;;1.77;1.50;;;20.80;90.00;21.60;95497.00;;;;5077811;28;20205;-84
2022/05/24 05:34:58;;;;;;;2.10;1.90;;;20.80;90.00;21.60;95511.00;;;;5078036;28;20198;-87
2022/05/24 05:37:28;;;;;;;1.50;1.40;;;20.80;90.00;21.60;95508.00;;;;5080305;28;20212;-87
2022/05/24 05:39:56;;;;;;;2.50;1.87;;;20.90;90.00;21.60;95514.00;;;;5078131;28;20228;-85
2022/05/24 05:42:24;;;;;;;1.67;1.50;;;20.80;90.00;21.60;95518.00;;;;5079126;28;20221;-86
2022/05/24 05:44:53;;;;;;;1.60;1.27;;;20.80;89.90;21.60;95509.00;;;;5078289;28;20194;-87
2022/05/24 05:47:20;;;;;;;1.90;1.40;;;20.90;89.80;21.60;95517.00;;;;5084697;28;20218;-85
2022/05/24 05:49:47;;;;;;;1.53;1.40;;;20.90;89.80;21.60;95517.00;;;;5082812;28;20703;-87
2022/05/24 05:52:15;;;;;;;1.80;1.40;;;20.90;89.90;21.60;95518.00;;;;5073793;28;20206;-87
2022/05/24 05:54:42;;;;;;;1.60;1.50;;;20.90;89.80;21.60;95525.00;;;;5084608;28;20238;-84
2022/05/24 05:57:10;;;;;;;1.63;1.27;;;20.80;89.50;21.60;95526.00;;;;5080354;28;20216;-87
2022/05/24 05:59:38;;;;;;;1.83;1.53;;;21.00;89.60;21.70;95528.00;;;;5063778;28;20286;-87
2022/05/24 06:02:08;;;;;;;2.23;1.40;;;20.90;89.50;21.70;95525.00;;;;5076979;28;20668;-86
2022/05/24 06:04:35;;;;;;;1.90;1.20;;;20.90;89.30;21.70;95522.00;;;;5075353;28;20809;-87
2022/05/24 06:07:02;;;;;;;2.37;1.47;;;20.90;89.30;21.70;95520.00;;;;5075509;28;20224;-85
2022/05/24 06:09:29;;;;;;;1.40;1.30;;;20.90;89.50;21.70;95522.00;;;;5080200;28;20302;-87
2022/05/24 06:11:56;;;;;;;1.63;1.10;;;20.90;89.50;21.70;95530.00;;;;5071419;28;20278;-86
2022/05/24 06:14:23;;;;;;;1.77;1.53;;;20.90;89.40;21.70;95529.00;;;;5080655;28;20222;-83
2022/05/24 06:16:50;;;;;;;1.77;1.20;;;20.90;89.20;21.70;95534.00;;;;5075088;28;20200;-86
2022/05/24 06:19:19;;;;;;;1.83;1.20;;;20.90;88.90;21.70;95541.00;;;;5076514;28;20199;-87
2022/05/24 06:21:46;;;;;;;1.47;1.30;;;21.00;88.70;21.70;95546.00;;;;5071777;28;20188;-87
2022/05/24 06:24:14;;;;;;;1.43;1.33;;;21.00;88.50;21.70;95550.00;;;;5077992;28;20207;-85
2022/05/24 06:26:43;;;;;;;2.60;1.53;;;21.00;88.40;21.70;95551.00;;;;5081338;28;20225;-86
2022/05/24 06:29:11;;;;;;;1.47;1.20;;;21.00;88.50;21.70;95543.00;;;;5078650;28;20281;-86
2022/05/24 06:31:38;;;;;;;1.80;1.57;;;21.00;88.50;21.70;95552.00;;;;5069058;28;20262;-87
2022/05/24 06:34:05;;;;;;;1.40;1.30;;;21.00;88.60;21.70;95554.00;;;;5077652;28;20200;-83
2022/05/24 06:36:34;;;;;;;1.20;1.10;;;21.00;88.30;21.70;95543.00;;;;5072770;28;20291;-87
2022/05/24 06:39:01;;;;;;;2.37;1.33;;;21.00;88.10;21.70;95549.00;;;;5077915;28;20611;-87
2022/05/24 06:41:28;;;;;;;1.10;1.10;;;20.90;87.90;21.60;95549.00;;;;5080481;28;20218;-87
2022/05/24 06:43:55;;;;;;;1.60;1.20;;;20.90;88.10;21.60;95552.00;;;;5080034;28;20253;-87
2022/05/24 06:46:25;;;;;;;1.87;1.10;;;20.90;88.10;21.60;95545.00;;;;5080210;28;20288;-84
2022/05/24 06:48:52;;;;;;;1.30;1.20;;;20.90;88.00;21.60;95546.00;;;;5079607;28;20224;-86
2022/05/24 06:51:22;;;;;;;0.93;0.93;;;20.90;88.20;21.60;95550.00;;;;5080251;28;20465;-86
2022/05/24 06:53:54;;;;;;;1.30;1.20;;;20.90;88.10;21.60;95562.00;;;;5079481;28;20285;-87
2022/05/24 06:56:21;;;;;;;1.03;1.03;;;20.90;88.10;21.70;95569.00;;;;5074416;28;20269;-87
2022/05/24 06:58:49;;;;;;;2.40;1.60;;;20.90;88.30;21.60;95571.00;;;;5081227;28;20219;-87
2022/05/24 07:04:06;;;;;;;1.70;1.20;;;20.80;88.50;21.60;95581.00;;;;5020407;28;20197;-86
2022/05/24 07:06:36;;;;;;;2.20;1.30;;;20.90;88.60;21.60;95574.00;;;;5075248;28;20211;-86
2022/05/24 07:09:05;;;;;;;0.90;0.90;;;20.90;88.50;21.60;95566.00;;;;5074600;28;20301;-87
2022/05/24 07:11:32;;;;;;;2.20;1.27;;;20.90;88.30;21.60;95572.00;;;;5076044;28;20188;-86
2022/05/24 07:13:59;;;;;;;1.60;1.00;;;20.90;88.40;21.60;95594.00;;;;5068748;28;20200;-86
2022/05/24 07:16:26;;;;;;;1.80;1.17;;;20.90;88.30;21.60;95599.00;;;;5080467;28;20219;-87
2022/05/24 07:18:53;;;;;;;1.30;1.20;;;20.90;88.10;21.60;95600.00;;;;5082181;28;20211;-87
2022/05/24 07:21:20;;;;;;;1.33;1.23;;;20.90;88.20;21.60;95590.00;;;;5085090;28;20662;-87
2022/05/24 07:23:47;;;;;;;1.67;1.13;;;20.90;87.90;21.60;95588.00;;;;5079609;28;20196;-87
2022/05/24 07:26:21;;;;;;;1.67;1.20;;;20.90;87.80;21.60;95579.00;;;;5080260;28;20205;-88
2022/05/24 07:28:48;;;;;;;1.33;0.90;;;20.90;87.60;21.60;95590.00;;;;5076212;28;20218;-88
2022/05/24 07:31:15;;;;;;;1.20;1.10;;;20.90;87.80;21.60;95606.00;;;;5085104;28;20199;-88
2022/05/24 07:33:42;;;;;;;1.50;1.00;;;20.90;87.80;21.60;95614.00;;;;5081695;28;20205;-87
2022/05/24 07:36:09;;;;;;;2.90;1.10;;;20.90;87.60;21.50;95614.00;;;;5084968;28;20197;-86
2022/05/24 07:38:37;;;;;;;1.57;1.23;;;20.90;87.80;21.50;95614.00;;;;5091683;22;20681;-83
2022/05/24 07:46:35;;;;;;;1.13;1.00;;;20.80;87.90;21.50;95621.00;;;;5037026;28;20204;-83
2022/05/24 07:49:04;;;;;;;1.20;1.20;;;20.80;88.00;21.50;95632.00;;;;5031967;28;20262;-84
2022/05/24 07:51:32;;;;;;;0.93;0.93;;;20.80;87.90;21.50;95631.00;;;;5033203;28;20262;-84
2022/05/24 07:53:59;;;;;;;1.37;1.07;;;20.80;87.70;21.50;95633.00;;;;5034785;28;20568;-83
2022/05/24 07:56:27;;;;;;;1.43;1.33;;;20.80;87.60;21.40;95638.00;;;;5042068;28;20226;-84
2022/05/24 07:58:55;;;;;;;1.90;1.10;;;20.80;87.20;21.40;95645.00;;;;5037054;28;20195;-84
2022/05/24 08:01:24;;;;;;;1.20;1.10;;;20.70;87.10;21.40;95646.00;;;;5036787;28;20205;-84
2022/05/24 08:03:51;;;;;;;1.73;1.30;;;20.70;87.20;21.30;95654.00;;;;5030844;28;20193;-84
2022/05/24 08:06:18;;;;;;;1.30;1.10;;;20.70;88.10;21.40;95659.00;;;;5043104;28;20208;-84
2022/05/24 08:08:45;;;;;;;1.63;1.17;;;20.70;87.30;21.30;95665.00;;;;5036657;28;20220;-85
2022/05/24 08:11:13;;;;;;;1.10;1.10;;;20.70;87.30;21.30;95664.00;;;;5039042;28;20200;-84
2022/05/24 08:13:41;;;;;;;1.07;1.00;;;20.60;87.30;21.30;95667.00;;;;5048160;28;20583;-84
2022/05/24 08:16:09;;;;;;;1.57;1.10;;;20.60;87.20;21.20;95673.00;;;;5043996;28;20608;-85
2022/05/24 08:18:36;;;;;;;1.27;1.17;;;20.60;87.10;21.20;95680.00;;;;5044298;28;20671;-84
2022/05/24 08:21:05;;;;;;;1.17;1.07;;;20.60;87.30;21.10;95693.00;;;;5034431;28;20194;-84
2022/05/24 08:23:32;;;;;;;2.23;1.20;;;20.50;87.20;21.10;95695.00;;;;5036706;28;20293;-84
2022/05/24 08:25:59;;;;;;;1.50;1.13;;;20.50;87.20;21.00;95711.00;;;;5032989;28;20220;-83
2022/05/24 08:28:26;;;;;;;1.03;0.90;;;20.40;87.20;21.00;95701.00;;;;5033255;28;20300;-83
2022/05/24 08:30:54;;;;;;;1.00;1.00;;;20.40;87.30;20.90;95693.00;;;;5028883;28;20706;-85
2022/05/24 08:33:25;;;;;;;1.20;1.03;;;20.40;87.40;20.90;95695.00;;;;5025954;28;20194;-84
2022/05/24 08:35:54;;;;;;;1.13;0.97;;;20.30;87.50;20.90;95703.00;;;;5023597;28;20197;-84
2022/05/24 08:38:23;;;;;;;2.13;1.20;;;20.30;87.80;20.90;95703.00;;;;5028036;28;20217;-84
2022/05/24 08:41:01;;;;;;;2.03;1.00;;;20.20;87.80;20.80;95709.00;;;;5020339;28;20686;-84
2022/05/24 08:49:36;;;;;;;0.77;0.77;;;20.20;88.10;20.80;95716.00;;;;5032410;28;20294;-84
2022/05/24 08:52:09;;;;;;;2.20;0.80;;;20.20;88.30;20.80;95720.00;;;;5030788;28;20276;-83
2022/05/24 08:54:41;;;;;;;1.00;0.83;;;20.20;88.50;20.80;95724.00;;;;5041922;28;20284;-84
2022/05/24 08:57:12;;;;;;;0.80;0.80;;;20.20;88.70;20.80;95727.00;;;;5041013;28;20221;-83
2022/05/24 08:59:48;;;;;;;1.33;1.27;;;20.20;89.10;21.00;95734.00;;;;5043763;28;20205;-84
2022/05/24 09:02:16;;;;;;;1.30;1.13;;;20.20;89.70;21.10;95729.00;;;;5050239;28;20283;-84
2022/05/24 09:04:44;;;;;;;1.40;0.87;;;20.20;90.10;21.20;95740.00;;;;5036008;28;20282;-84
2022/05/24 09:07:25;;;;;;;1.03;0.90;;;20.30;90.20;21.30;95737.00;;;;5041322;28;20295;-84
2022/05/24 09:10:02;;;;;;;1.87;1.27;;;20.40;90.20;21.40;95744.00;;;;5030288;28;20303;-84
2022/05/24 09:12:52;;;;;;;1.73;1.30;;;20.40;90.00;21.40;95734.00;;;;5042221;28;20286;-84
2022/05/24 09:15:32;;;;;;;0.87;0.80;;;20.50;89.70;21.40;95730.00;;;;5028766;28;20204;-84
2022/05/24 09:18:14;;;;;;;1.03;0.70;;;20.50;89.20;21.40;95732.00;;;;5032165;28;20226;-84
2022/05/24 09:20:45;;;;;;;1.60;0.90;;;20.60;88.50;21.40;95735.00;;;;5031519;28;20255;-84
2022/05/24 09:23:23;;;;;;;1.83;0.90;;;20.60;88.50;21.40;95730.00;;;;5022943;28;20236;-85
2022/05/24 09:25:57;;;;;;;0.90;0.90;;;20.60;88.30;21.40;95726.00;;;;5038833;28;20207;-84
2022/05/24 09:28:48;;;;;;;0.90;0.90;;;20.60;88.20;21.40;95730.00;;;;5035765;28;20225;-84
2022/05/24 09:31:30;;;;;;;1.10;1.00;;;20.60;88.10;21.50;95725.00;;;;5038335;28;20220;-84
2022/05/24 09:34:00;;;;;;;1.60;1.27;;;20.60;88.60;21.50;95716.00;;;;5030001;28;20354;-84
2022/05/24 09:36:39;;;;;;;1.40;1.10;;;20.70;88.90;21.60;95705.00;;;;5036557;28;20201;-84
2022/05/24 09:39:23;;;;;;;1.07;1.00;;;20.70;88.40;21.60;95728.00;;;;5040717;28;20304;-85
2022/05/24 09:41:58;;;;;;;1.20;0.80;;;20.70;88.70;21.60;95733.00;;;;5031941;28;20287;-84
2022/05/24 09:44:26;;;;;;;0.80;0.80;;;20.80;88.60;21.60;95733.00;;;;5032379;28;20974;-84
2022/05/24 09:46:55;;;;;;;1.50;0.77;;;20.80;88.50;21.60;95726.00;;;;5043394;28;20582;-84
2022/05/24 09:49:28;;;;;;;1.00;0.90;;;20.80;88.40;21.60;95735.00;;;;5034562;28;20208;-84
2022/05/24 09:52:08;;;;;;;0.90;0.77;;;20.80;88.10;21.60;95750.00;;;;5023534;28;20193;-84
2022/05/24 09:54:37;;;;;;;1.90;1.57;;;20.80;88.10;21.60;95740.00;;;;5035801;28;20287;-84
2022/05/24 09:57:09;;;;;;;1.43;1.13;;;20.80;88.00;21.60;95741.00;;;;5036350;28;20216;-84
2022/05/24 09:59:40;;;;;;;1.37;1.00;;;20.80;87.90;21.60;95739.00;;;;5041854;28;20211;-84
2022/05/24 10:02:24;;;;;;;1.10;1.00;;;20.80;88.10;21.70;95745.00;;;;5046267;28;20200;-84
2022/05/24 10:04:51;;;;;;;0.83;0.80;;;20.90;87.70;21.70;95746.00;;;;5041911;28;20657;-84
2022/05/24 10:07:27;;;;;;;0.80;0.80;;;20.90;88.10;21.70;95749.00;;;;5044125;28;20221;-84
2022/05/24 10:10:05;;;;;;;0.70;0.67;;;20.90;88.00;21.80;95758.00;;;;5038883;28;20224;-84
2022/05/24 10:12:48;;;;;;;0.70;0.70;;;20.90;87.90;21.80;95773.00;;;;5035245;28;20306;-84
2022/05/24 10:15:28;;;;;;;2.57;0.97;;;21.00;87.90;21.90;95778.00;;;;5037369;28;20214;-83
2022/05/24 10:18:23;;;;;;;2.53;0.80;;;21.00;87.10;21.90;95786.00;;;;5044336;28;20291;-84
2022/05/24 10:21:10;;;;;;;1.10;0.90;;;21.00;86.30;21.80;95788.00;;;;5031649;28;20206;-84
2022/05/24 10:23:54;;;;;;;1.63;0.70;;;21.00;85.80;21.80;95794.00;;;;5040873;28;20580;-84
2022/05/24 10:26:39;;;;;;;0.73;0.70;;;21.00;85.50;21.70;95807.00;;;;5031775;28;20287;-84
2022/05/24 10:29:20;;;;;;;1.10;0.80;;;21.00;85.70;21.60;95813.00;;;;5035313;28;20263;-83
2022/05/24 10:31:55;;;;;;;1.57;0.70;;;20.90;85.10;21.60;95806.00;;;;5031730;28;20431;-84
2022/05/24 10:40:35;;;;;;;0.80;0.80;;;20.80;85.10;21.40;95808.00;;;;5040739;28;20254;-86
2022/05/24 10:43:29;;;;;;;1.20;0.60;;;20.70;85.30;21.40;95809.00;;;;5035162;28;20701;-85
2022/05/24 10:46:05;;;;;;;1.10;1.00;;;20.70;85.10;21.40;95807.00;;;;5034072;28;20581;-85
2022/05/24 10:48:38;;;;;;;0.97;0.77;;;20.60;85.80;21.40;95811.00;;;;5028555;28;20221;-85
2022/05/24 10:51:14;;;;;;;0.87;0.70;;;20.60;86.20;21.40;95803.00;;;;5037021;28;20227;-85
2022/05/24 10:53:53;;;;;;;1.77;0.73;;;20.60;86.20;21.50;95803.00;;;;5032538;28;20286;-84
2022/05/24 10:56:36;;;;;;;1.60;0.90;;;20.60;86.00;21.60;95800.00;;;;5025934;28;20302;-84
2022/05/24 10:59:14;;;;;;;1.77;1.20;;;20.60;86.50;21.70;95809.00;;;;5024404;28;20193;-84
2022/05/24 11:01:51;;;;;;;1.97;1.43;;;20.70;87.70;21.70;95815.00;;;;5033114;28;20635;-83
2022/05/24 11:04:26;;;;;;;1.37;1.27;;;20.70;87.30;21.80;95810.00;;;;5027032;28;20234;-84
2022/05/24 11:07:06;;;;;;;1.23;1.13;;;20.80;87.50;21.90;95799.00;;;;5026638;28;20224;-84
2022/05/24 11:09:39;;;;;;;1.20;1.10;;;20.80;87.30;21.90;95814.00;;;;5031979;28;20246;-84
2022/05/24 11:12:16;;;;;;;1.30;1.20;;;20.90;87.30;22.00;95808.00;;;;5030614;28;20233;-84
2022/05/24 11:14:50;;;;;;;1.40;1.23;;;21.00;87.10;22.00;95824.00;;;;5033510;28;20220;-83
2022/05/24 11:17:20;;;;;;;3.17;1.40;;;21.00;86.60;22.00;95820.00;;;;5047323;28;20645;-84
2022/05/24 11:19:51;;;;;;;1.30;1.20;;;21.00;86.00;22.00;95823.00;;;;5040056;28;20226;-84
2022/05/24 11:22:29;;;;;;;1.17;1.07;;;21.00;85.60;21.90;95827.00;;;;5039973;28;20236;-83
2022/05/24 11:25:05;;;;;;;1.13;1.00;;;21.00;85.40;21.90;95818.00;;;;5035941;28;20230;-83
2022/05/24 11:27:37;;;;;;;2.67;1.13;;;21.00;85.70;21.80;95821.00;;;;5033348;28;20303;-83
2022/05/24 11:30:15;;;;;;;1.17;1.07;;;21.00;85.60;21.80;95818.00;;;;5038733;28;20247;-83
2022/05/24 11:32:47;;;;;;;1.70;1.17;;;21.00;85.30;21.80;95818.00;;;;5032431;28;20230;-83
2022/05/24 11:35:27;;;;;;;2.57;1.50;;;21.00;85.60;21.80;95814.00;;;;5031114;28;20174;-83
2022/05/24 11:38:09;;;;;;;1.50;1.37;;;21.00;85.00;21.80;95809.00;;;;5031284;28;20234;-83
2022/05/24 11:40:40;;;;;;;1.93;1.23;;;21.00;85.30;21.70;95844.00;;;;5031533;28;20206;-83
2022/05/24 11:43:12;;;;;;;0.67;0.67;;;20.90;85.10;21.60;95854.00;;;;5031452;28;20193;-83
2022/05/24 11:45:57;;;;;;;0.50;0.40;;;20.90;84.10;21.40;95857.00;;;;5018683;28;20195;-83
2022/05/24 11:48:48;;;;;;;0.67;0.40;;;20.80;81.80;21.10;95854.00;;;;5012915;28;20247;-83